aviador You're here:

KDVL Decoded Metar

DEVILS LAKE in ND, USA
Report Time2018-02-22 13:56:00
UTC Time2018-02-22 14:57:05
Flight Rules vfr VFR
Wind170° at 05 kt
W.Decomp.*RWY 13: 4.2 kt HW 2.7 kt RCW
RWY 21: 3.4 kt HW 3.7 kt LCW
W.Rank170° ranks 10
Current wind is below 170° avg. (10.8)
Visibility9999 m
Phenomena:N/A
Clouds:N/A
Expected CloudBase > 400 ft AGL from Temp-Dew spread
CeilingNone
Temp-22°C (ISA -34)
Dew Point-23°C (92% RH)
AAT-27.5°C
QNH1027 hPa
Density Alt-3,383 ft
Elevation1,453 ft
Report Wrong Elevation
Raw Report
KDVL 221356Z AUTO 17005KT 10SM CLR M22/M23 A3034 RMK AO2 SLP336
T12171233 FZRANO=

Extra information for KDVL:More info

Metar Taf Metar & Taf Last 4 Metars F.Rules Stats Wind Profile Meteogram Temp Stats Airport Information Weather charts Add Link Nearby VenuesMetar ALERT Operation Metar Decoded Social comments

AIRNAV info for KDVL